Time;durP1;ratioP1;P1;durP2;ratioP2;P2;SDS_P1;SDS_P2;PMS_P1;PMS_P2;Temp;Humidity;BMP_temperature;BMP_pressure;BME280_temperature;BME280_humidity;BME280_pressure;Samples;Min_cycle;Max_cycle;Signal;HPM_P1;HPM_P2
2021/03/18 00:01:17;;;;;;;9.67;7.80;;;4.80;99.90;;;;;;5031951;28;20245;-60
2021/03/18 00:03:46;;;;;;;11.23;7.47;;;4.80;99.90;;;;;;5031401;28;20253;-60
2021/03/18 00:06:13;;;;;;;10.23;7.33;;;4.70;99.90;;;;;;5031430;28;20198;-59
2021/03/18 00:08:40;;;;;;;8.90;7.83;;;4.70;99.90;;;;;;5031607;28;20678;-60
2021/03/18 00:11:10;;;;;;;9.77;8.00;;;4.70;99.90;;;;;;5031912;28;20572;-59
2021/03/18 00:13:37;;;;;;;8.03;7.03;;;4.80;99.90;;;;;;5031738;28;20230;-60
2021/03/18 00:16:04;;;;;;;9.93;8.17;;;4.80;99.90;;;;;;5031613;28;20233;-60
2021/03/18 00:18:33;;;;;;;8.57;7.33;;;4.90;99.90;;;;;;5031524;28;20247;-60
2021/03/18 00:21:01;;;;;;;10.27;7.77;;;4.90;99.90;;;;;;5031817;28;20288;-59
2021/03/18 00:23:27;;;;;;;11.63;8.40;;;4.90;99.90;;;;;;5031190;28;20226;-59
2021/03/18 00:25:54;;;;;;;9.13;8.23;;;5.00;99.90;;;;;;5031893;28;20198;-59
2021/03/18 00:28:20;;;;;;;12.13;8.90;;;5.00;99.90;;;;;;5031485;28;20206;-60
2021/03/18 00:30:46;;;;;;;11.17;8.73;;;5.10;99.90;;;;;;5031411;28;20690;-59
2021/03/18 00:33:12;;;;;;;10.10;8.93;;;5.00;99.90;;;;;;5030863;28;20226;-59
2021/03/18 00:35:39;;;;;;;10.57;8.40;;;5.00;99.90;;;;;;5031308;28;20578;-62
2021/03/18 00:38:06;;;;;;;10.97;8.53;;;4.90;99.90;;;;;;5031390;28;20717;-60
2021/03/18 00:40:35;;;;;;;9.87;8.67;;;4.90;99.90;;;;;;5031684;28;20209;-61
2021/03/18 00:43:03;;;;;;;10.13;9.03;;;4.90;99.90;;;;;;5031548;28;20237;-60
2021/03/18 00:45:32;;;;;;;10.67;8.60;;;4.90;99.90;;;;;;5031281;28;20210;-59
2021/03/18 00:47:59;;;;;;;10.43;8.90;;;4.90;99.90;;;;;;5031149;28;20725;-59
2021/03/18 00:50:28;;;;;;;12.00;8.20;;;4.90;99.90;;;;;;5031195;28;20293;-60
2021/03/18 00:52:56;;;;;;;10.10;8.63;;;4.80;99.90;;;;;;5031086;28;20653;-60
2021/03/18 00:55:23;;;;;;;10.40;9.00;;;4.80;99.90;;;;;;5030781;28;20230;-60
2021/03/18 00:57:49;;;;;;;12.63;9.00;;;4.80;99.90;;;;;;5030695;28;20206;-60
2021/03/18 01:00:19;;;;;;;12.43;9.03;;;4.80;99.90;;;;;;5031249;28;20214;-60
2021/03/18 01:02:46;;;;;;;9.93;8.10;;;4.80;99.90;;;;;;5030820;28;20490;-60
2021/03/18 01:05:16;;;;;;;11.00;8.90;;;4.80;99.90;;;;;;5030851;28;20264;-60
2021/03/18 01:07:43;;;;;;;12.60;8.67;;;4.80;99.90;;;;;;5031027;28;20210;-59
2021/03/18 01:10:13;;;;;;;12.03;8.63;;;4.80;99.90;;;;;;5031519;28;20276;-61
2021/03/18 01:12:39;;;;;;;11.10;8.70;;;4.80;99.90;;;;;;5031198;28;20271;-61
2021/03/18 01:15:06;;;;;;;13.07;9.27;;;4.80;99.90;;;;;;5030898;28;20217;-60
2021/03/18 01:17:33;;;;;;;14.50;9.33;;;4.80;99.90;;;;;;5031015;28;20211;-60
2021/03/18 01:19:59;;;;;;;13.27;10.07;;;4.80;99.90;;;;;;5030840;28;20226;-60
2021/03/18 01:22:25;;;;;;;14.63;10.10;;;4.90;99.90;;;;;;5030613;28;20227;-59
2021/03/18 01:24:54;;;;;;;11.47;8.73;;;4.90;99.90;;;;;;5030856;28;20206;-60
2021/03/18 01:27:23;;;;;;;10.80;9.70;;;4.90;99.90;;;;;;5030936;28;20357;-60
2021/03/18 01:29:49;;;;;;;13.07;9.17;;;4.90;99.90;;;;;;5030629;28;20206;-60
2021/03/18 01:32:16;;;;;;;11.50;9.20;;;4.90;99.90;;;;;;5030575;28;20241;-59
2021/03/18 01:34:42;;;;;;;11.47;9.37;;;4.90;99.90;;;;;;5030563;28;20207;-60
2021/03/18 01:37:08;;;;;;;12.70;9.33;;;4.90;99.90;;;;;;5030430;28;20733;-60
2021/03/18 01:39:34;;;;;;;10.23;8.83;;;4.90;99.90;;;;;;5030555;28;20206;-59
2021/03/18 01:42:00;;;;;;;11.77;9.07;;;4.90;99.90;;;;;;5030254;28;20209;-59
2021/03/18 01:44:27;;;;;;;11.87;8.93;;;4.90;99.90;;;;;;5030564;28;20232;-59
2021/03/18 01:46:54;;;;;;;11.80;9.27;;;4.80;99.90;;;;;;5034207;28;20206;-60
2021/03/18 01:49:20;;;;;;;11.83;9.33;;;4.80;99.90;;;;;;5034352;28;20221;-59
2021/03/18 01:51:46;;;;;;;12.33;9.33;;;4.80;99.90;;;;;;5034084;28;20206;-59
2021/03/18 01:54:14;;;;;;;11.60;9.40;;;4.80;99.90;;;;;;5033777;28;20202;-59
2021/03/18 01:56:40;;;;;;;13.20;10.60;;;4.90;99.90;;;;;;5033573;28;20230;-59
2021/03/18 01:59:06;;;;;;;12.30;9.93;;;4.90;99.90;;;;;;5034044;28;20210;-60
2021/03/18 02:01:33;;;;;;;14.33;10.77;;;4.80;99.90;;;;;;5034185;28;20202;-59
2021/03/18 02:03:59;;;;;;;12.13;10.10;;;4.80;99.90;;;;;;5033916;28;20547;-59
2021/03/18 02:06:27;;;;;;;15.43;9.87;;;4.80;99.90;;;;;;5033891;28;20256;-59
2021/03/18 02:08:54;;;;;;;13.17;10.33;;;4.80;99.90;;;;;;5033746;28;20276;-59
2021/03/18 02:11:20;;;;;;;11.07;9.63;;;4.70;99.90;;;;;;5033834;28;20217;-59
2021/03/18 02:13:47;;;;;;;16.10;9.87;;;4.70;99.90;;;;;;5033596;28;20737;-60
2021/03/18 02:16:15;;;;;;;13.30;10.93;;;4.70;99.90;;;;;;5033735;28;20237;-59
2021/03/18 02:18:50;;;;;;;13.03;10.07;;;4.70;99.90;;;;;;5033613;28;20256;-60
2021/03/18 02:21:50;;;;;;;14.47;10.93;;;4.70;99.90;;;;;;5033693;28;20217;-59
2021/03/18 02:24:22;;;;;;;13.30;10.67;;;4.70;99.90;;;;;;5033587;28;20203;-60
2021/03/18 02:27:19;;;;;;;13.10;11.03;;;4.70;99.90;;;;;;5033445;28;20206;-60
2021/03/18 02:30:30;;;;;;;14.00;10.67;;;4.70;99.90;;;;;;5032996;28;20591;-59
2021/03/18 02:33:34;;;;;;;12.40;10.57;;;4.70;99.90;;;;;;5023278;28;20226;-60
2021/03/18 02:36:04;;;;;;;11.73;10.20;;;4.70;99.90;;;;;;5032900;28;20230;-59
2021/03/18 02:38:34;;;;;;;12.33;10.40;;;4.70;99.90;;;;;;5033041;28;20202;-60
2021/03/18 02:41:05;;;;;;;12.33;11.13;;;4.70;99.90;;;;;;5033044;28;20210;-60
2021/03/18 02:43:38;;;;;;;12.30;10.23;;;4.60;99.90;;;;;;5032629;28;20237;-59
2021/03/18 02:46:07;;;;;;;10.30;9.17;;;4.60;99.90;;;;;;5032881;28;20580;-59
2021/03/18 02:48:36;;;;;;;10.93;9.23;;;4.70;99.90;;;;;;5032703;28;20210;-60
2021/03/18 02:51:06;;;;;;;13.97;10.43;;;4.70;99.90;;;;;;5032715;28;20210;-60
2021/03/18 02:53:34;;;;;;;12.03;9.67;;;4.70;99.90;;;;;;5032584;28;20706;-61
2021/03/18 02:56:03;;;;;;;13.03;9.40;;;4.80;99.90;;;;;;5032615;28;20229;-60
2021/03/18 02:58:34;;;;;;;11.10;9.20;;;4.80;99.90;;;;;;5032428;28;20210;-59
2021/03/18 03:01:02;;;;;;;10.80;9.50;;;4.80;99.90;;;;;;5032536;28;20206;-60
2021/03/18 03:03:29;;;;;;;11.27;8.90;;;4.90;99.90;;;;;;5065051;22;20311;-57
2021/03/18 03:05:58;;;;;;;11.73;9.37;;;4.90;99.90;;;;;;5072584;28;20296;-58
2021/03/18 03:08:26;;;;;;;11.97;9.13;;;4.90;99.90;;;;;;5072226;28;20209;-58
2021/03/18 03:10:54;;;;;;;11.60;9.53;;;4.90;99.90;;;;;;5072154;28;20212;-57
2021/03/18 03:13:21;;;;;;;11.30;9.33;;;5.00;99.90;;;;;;5071960;28;20268;-58
2021/03/18 03:15:49;;;;;;;11.00;9.30;;;5.00;99.90;;;;;;5071748;28;20217;-58
2021/03/18 03:18:16;;;;;;;12.97;9.70;;;5.00;99.90;;;;;;5072112;28;20216;-58
2021/03/18 03:20:43;;;;;;;9.27;7.97;;;5.00;99.90;;;;;;5072316;28;20209;-58
2021/03/18 03:23:10;;;;;;;10.60;7.67;;;4.90;99.90;;;;;;5072161;28;20221;-58
2021/03/18 03:25:38;;;;;;;9.67;8.13;;;4.90;99.90;;;;;;5072608;28;20205;-58
2021/03/18 03:28:10;;;;;;;12.73;8.40;;;4.70;99.90;;;;;;5072766;28;20200;-58
2021/03/18 03:30:36;;;;;;;10.77;8.67;;;4.50;99.90;;;;;;5073098;28;20262;-59
2021/03/18 03:33:03;;;;;;;10.73;8.73;;;4.50;99.90;;;;;;5072739;28;20242;-58
2021/03/18 03:35:29;;;;;;;9.37;8.03;;;4.50;99.90;;;;;;5072204;28;20216;-58
2021/03/18 03:37:56;;;;;;;9.87;8.33;;;4.50;99.90;;;;;;5071809;28;20204;-58
2021/03/18 03:40:22;;;;;;;10.37;8.77;;;4.50;99.90;;;;;;5071892;28;20208;-59
2021/03/18 03:42:49;;;;;;;14.90;9.13;;;4.60;99.90;;;;;;5071462;28;20225;-58
2021/03/18 03:45:16;;;;;;;11.77;9.27;;;4.60;99.90;;;;;;5071486;28;20201;-57
2021/03/18 03:47:44;;;;;;;11.73;9.23;;;4.60;99.90;;;;;;5071717;28;20258;-58
2021/03/18 03:50:14;;;;;;;10.13;9.03;;;4.70;99.90;;;;;;5071502;28;20200;-57
2021/03/18 03:52:48;;;;;;;11.07;9.37;;;4.70;99.90;;;;;;5071336;28;20225;-58
2021/03/18 03:55:23;;;;;;;9.73;8.73;;;4.70;99.90;;;;;;5071158;28;20350;-57
2021/03/18 03:57:57;;;;;;;13.83;10.33;;;4.70;99.90;;;;;;5071256;28;20254;-57
2021/03/18 04:00:24;;;;;;;12.67;9.63;;;4.80;99.90;;;;;;5071229;28;20613;-58
2021/03/18 04:02:53;;;;;;;13.27;9.53;;;4.80;99.90;;;;;;5071224;28;20240;-58
2021/03/18 04:05:21;;;;;;;13.10;10.10;;;4.80;99.90;;;;;;5071125;28;20208;-58
2021/03/18 04:07:48;;;;;;;13.00;9.50;;;4.90;99.90;;;;;;5070987;28;20527;-58
2021/03/18 04:10:14;;;;;;;11.93;9.57;;;4.90;99.90;;;;;;5071275;28;20634;-57
2021/03/18 04:12:45;;;;;;;11.97;8.87;;;4.90;99.90;;;;;;5071238;28;20256;-58
2021/03/18 04:15:15;;;;;;;11.30;9.30;;;4.90;99.90;;;;;;5070995;28;20216;-59
2021/03/18 04:17:43;;;;;;;13.27;9.43;;;4.90;99.90;;;;;;5070909;28;20232;-58
2021/03/18 04:20:14;;;;;;;10.50;8.70;;;5.00;99.90;;;;;;5070892;28;20209;-58
2021/03/18 04:22:41;;;;;;;12.20;9.10;;;5.00;99.90;;;;;;5071207;28;20270;-58
2021/03/18 04:25:12;;;;;;;11.83;8.97;;;5.00;99.90;;;;;;5071011;28;20226;-58
2021/03/18 04:27:39;;;;;;;11.47;8.53;;;5.00;99.90;;;;;;5070640;28;20673;-58
2021/03/18 04:30:09;;;;;;;13.23;9.27;;;5.00;99.90;;;;;;5071039;28;20201;-58
2021/03/18 04:32:38;;;;;;;10.30;9.03;;;4.90;99.90;;;;;;5070892;28;20225;-59
2021/03/18 04:35:06;;;;;;;11.63;9.10;;;4.90;99.90;;;;;;5070487;28;20209;-59
2021/03/18 04:37:33;;;;;;;10.03;8.27;;;4.90;99.90;;;;;;5071109;28;20232;-58
2021/03/18 04:40:01;;;;;;;10.37;8.77;;;4.80;99.90;;;;;;5071016;28;20205;-59
2021/03/18 04:42:27;;;;;;;12.03;9.70;;;4.80;99.90;;;;;;5070541;28;20220;-59
2021/03/18 04:44:54;;;;;;;10.93;8.67;;;4.70;99.90;;;;;;5071093;28;20204;-58
2021/03/18 04:47:21;;;;;;;10.27;9.13;;;4.80;99.90;;;;;;5070795;28;20258;-59
2021/03/18 04:49:51;;;;;;;10.73;9.63;;;4.70;99.90;;;;;;5070701;28;20205;-59
2021/03/18 04:52:18;;;;;;;11.57;9.73;;;4.80;99.90;;;;;;5071044;28;20213;-59
2021/03/18 04:54:45;;;;;;;12.50;9.30;;;4.80;99.90;;;;;;5070878;28;20262;-58
2021/03/18 04:57:14;;;;;;;12.17;8.90;;;4.80;99.90;;;;;;5070738;28;20221;-59
2021/03/18 04:59:42;;;;;;;11.77;9.30;;;4.80;99.90;;;;;;5070608;28;20209;-59
2021/03/18 05:02:10;;;;;;;11.07;8.73;;;4.80;99.90;;;;;;5070782;28;20205;-59
2021/03/18 05:04:37;;;;;;;10.17;8.67;;;4.80;99.90;;;;;;5070305;28;20245;-59
2021/03/18 05:07:05;;;;;;;9.37;8.10;;;4.70;99.90;;;;;;5070721;28;20197;-60
2021/03/18 05:09:32;;;;;;;11.40;8.70;;;4.70;99.90;;;;;;5070603;28;20205;-58
2021/03/18 05:11:59;;;;;;;11.53;8.90;;;4.70;99.90;;;;;;5070435;28;20216;-59
2021/03/18 05:14:27;;;;;;;10.53;8.70;;;4.70;99.90;;;;;;5070079;28;20229;-59
2021/03/18 05:16:54;;;;;;;11.90;8.47;;;4.70;99.90;;;;;;5070320;28;20247;-59
2021/03/18 05:19:21;;;;;;;13.57;9.90;;;4.70;99.90;;;;;;5070488;28;20212;-59
2021/03/18 05:21:49;;;;;;;10.77;8.37;;;4.70;99.90;;;;;;5073921;28;20703;-59
2021/03/18 05:24:17;;;;;;;9.67;7.37;;;4.70;99.90;;;;;;5074198;28;20697;-59
2021/03/18 05:26:44;;;;;;;11.03;8.63;;;4.70;99.90;;;;;;5074100;28;20254;-58
2021/03/18 05:29:11;;;;;;;9.37;8.40;;;4.70;99.90;;;;;;5073943;28;20596;-59
2021/03/18 05:31:37;;;;;;;10.83;7.53;;;4.70;99.90;;;;;;5074139;28;20205;-59
2021/03/18 05:34:04;;;;;;;13.57;9.50;;;4.70;99.90;;;;;;5073774;28;20237;-60
2021/03/18 05:36:31;;;;;;;9.87;7.43;;;4.60;99.90;;;;;;5074124;28;20220;-59
2021/03/18 05:38:57;;;;;;;10.37;6.50;;;4.60;99.90;;;;;;5073828;28;20676;-60
2021/03/18 05:41:25;;;;;;;9.97;7.80;;;4.60;99.90;;;;;;5073939;28;20625;-59
2021/03/18 05:43:51;;;;;;;10.50;7.23;;;4.60;99.90;;;;;;5073618;28;20229;-59
2021/03/18 05:46:18;;;;;;;9.73;6.77;;;4.70;99.90;;;;;;5073866;28;20201;-59
2021/03/18 05:48:45;;;;;;;10.03;8.10;;;4.50;99.90;;;;;;5073674;28;20209;-59
2021/03/18 05:51:15;;;;;;;10.30;6.80;;;4.50;99.90;;;;;;5073968;28;20669;-58
2021/03/18 05:53:43;;;;;;;8.87;6.77;;;4.50;99.90;;;;;;5073499;28;20229;-59
2021/03/18 05:56:14;;;;;;;10.77;7.43;;;4.50;99.90;;;;;;5073379;28;20221;-58
2021/03/18 05:58:41;;;;;;;8.33;6.63;;;4.50;99.90;;;;;;5073655;28;20215;-60
2021/03/18 06:01:09;;;;;;;7.47;5.97;;;4.50;99.90;;;;;;5073914;28;20212;-58
2021/03/18 06:03:36;;;;;;;8.70;6.20;;;4.50;99.90;;;;;;5073378;28;20660;-59
2021/03/18 06:06:04;;;;;;;7.20;6.20;;;4.60;99.90;;;;;;5073521;28;20201;-59
2021/03/18 06:08:33;;;;;;;14.97;6.50;;;4.60;99.90;;;;;;5073251;28;20265;-58
2021/03/18 06:10:59;;;;;;;9.83;5.57;;;4.70;99.90;;;;;;5073465;28;20232;-59
2021/03/18 06:13:25;;;;;;;11.47;6.53;;;4.70;99.90;;;;;;5073517;28;20286;-58
2021/03/18 06:15:52;;;;;;;7.17;5.43;;;4.70;99.90;;;;;;5073186;28;20712;-58
2021/03/18 06:18:20;;;;;;;7.67;5.57;;;4.80;99.90;;;;;;5073336;28;20212;-58
2021/03/18 06:20:49;;;;;;;11.43;5.63;;;4.90;99.90;;;;;;5073207;28;20295;-58
2021/03/18 06:23:15;;;;;;;15.70;10.13;;;5.00;99.90;;;;;;5073383;28;20652;-59
2021/03/18 06:25:41;;;;;;;8.90;5.67;;;5.20;99.90;;;;;;5073324;28;20216;-59
2021/03/18 06:28:18;;;;;;;15.90;11.83;;;5.40;99.90;;;;;;5073124;28;20204;-59
2021/03/18 06:30:58;;;;;;;5.90;4.70;;;5.60;99.90;;;;;;5072831;28;20653;-58
2021/03/18 06:33:26;;;;;;;9.93;4.77;;;5.90;99.90;;;;;;5072684;28;20235;-57
2021/03/18 06:35:52;;;;;;;9.53;5.33;;;6.10;99.90;;;;;;5072659;28;20205;-58
2021/03/18 06:38:26;;;;;;;7.37;5.47;;;6.30;99.90;;;;;;5072521;28;20212;-58
2021/03/18 06:40:52;;;;;;;10.77;7.47;;;6.40;99.90;;;;;;5072952;28;20243;-58
2021/03/18 06:43:18;;;;;;;5.30;4.47;;;6.60;99.90;;;;;;5072544;28;20229;-58
2021/03/18 06:45:45;;;;;;;6.37;4.83;;;6.60;99.90;;;;;;5072639;28;20205;-58
2021/03/18 06:48:14;;;;;;;6.40;5.20;;;6.60;99.90;;;;;;5072379;28;20677;-59
2021/03/18 06:50:43;;;;;;;10.37;4.33;;;6.70;99.90;;;;;;5072590;28;20664;-58
2021/03/18 06:53:21;;;;;;;5.67;4.53;;;6.60;99.90;;;;;;5072753;28;20225;-58
2021/03/18 06:55:47;;;;;;;7.40;4.73;;;6.60;99.90;;;;;;5072203;28;20279;-59
2021/03/18 06:58:18;;;;;;;10.80;5.40;;;6.60;99.90;;;;;;5072689;28;20205;-57
2021/03/18 07:00:47;;;;;;;12.43;4.97;;;6.70;99.90;;;;;;5072933;28;20209;-58
2021/03/18 07:03:25;;;;;;;5.13;3.80;;;6.80;99.90;;;;;;5072098;28;20239;-58
2021/03/18 07:05:51;;;;;;;8.20;4.07;;;6.60;99.90;;;;;;5072486;28;20204;-58
2021/03/18 07:08:26;;;;;;;12.83;4.30;;;6.40;99.90;;;;;;5072019;28;20246;-58
2021/03/18 07:10:53;;;;;;;9.47;5.10;;;6.40;99.90;;;;;;5072121;28;20212;-58
2021/03/18 07:13:22;;;;;;;9.77;4.63;;;6.60;99.90;;;;;;5071711;28;20266;-59
2021/03/18 07:15:50;;;;;;;10.47;5.43;;;6.70;99.90;;;;;;5072162;28;20232;-58
2021/03/18 07:18:16;;;;;;;6.33;4.00;;;7.10;99.90;;;;;;5071956;28;20278;-58
2021/03/18 07:20:58;;;;;;;6.37;4.10;;;7.60;99.90;;;;;;5071816;28;20664;-59
2021/03/18 07:23:33;;;;;;;6.97;4.00;;;8.20;99.90;;;;;;5071710;28;20221;-58
2021/03/18 07:25:59;;;;;;;10.87;4.37;;;8.70;99.20;;;;;;5072271;28;20204;-60
2021/03/18 07:28:26;;;;;;;5.17;3.83;;;9.00;98.30;;;;;;5072110;28;20251;-62
2021/03/18 07:30:52;;;;;;;7.23;3.83;;;9.00;98.10;;;;;;5072214;28;20209;-58
2021/03/18 07:33:20;;;;;;;4.97;4.00;;;9.10;97.80;;;;;;5071889;28;20234;-57
2021/03/18 07:35:46;;;;;;;6.80;3.80;;;9.20;96.70;;;;;;5071740;28;20201;-59
2021/03/18 07:38:13;;;;;;;5.93;4.20;;;9.50;97.10;;;;;;5071527;28;20205;-58
2021/03/18 07:40:40;;;;;;;9.97;3.60;;;10.30;96.60;;;;;;5071557;28;20209;-59
2021/03/18 07:43:06;;;;;;;8.40;4.07;;;11.60;94.60;;;;;;5070730;28;20731;-58
2021/03/18 07:45:33;;;;;;;8.17;4.27;;;12.90;93.20;;;;;;5071449;28;20255;-59
2021/03/18 07:48:02;;;;;;;7.40;3.50;;;13.70;90.10;;;;;;5071446;28;20204;-59
2021/03/18 07:50:32;;;;;;;4.73;3.30;;;14.00;88.10;;;;;;5071419;28;20684;-58
2021/03/18 07:52:59;;;;;;;5.17;3.00;;;13.80;86.30;;;;;;5071204;28;20229;-59
2021/03/18 07:55:27;;;;;;;6.37;3.47;;;13.50;84.20;;;;;;5071403;28;20209;-58
2021/03/18 07:57:53;;;;;;;110.15;79.18;;;12.80;84.70;;;;;;5070599;28;20476;-64
2021/03/18 08:00:23;;;;;;;7.73;3.87;;;11.80;88.10;;;;;;5071214;28;20205;-63
2021/03/18 08:02:49;;;;;;;6.07;2.90;;;11.40;89.80;;;;;;5071123;28;20237;-61
2021/03/18 08:05:40;;;;;;;4.77;3.00;;;11.20;90.20;;;;;;5070805;28;20216;-64
2021/03/18 08:08:07;;;;;;;8.33;3.20;;;10.90;91.00;;;;;;5071395;28;20580;-62
2021/03/18 08:10:39;;;;;;;6.40;2.90;;;10.60;90.90;;;;;;5071372;28;20219;-64
2021/03/18 08:13:05;;;;;;;6.30;3.80;;;10.30;91.10;;;;;;5069354;28;20241;-64
2021/03/18 08:15:44;;;;;;;4.47;3.40;;;10.00;91.80;;;;;;5069934;28;20687;-65
2021/03/18 08:18:39;;;;;;;9.73;3.73;;;9.60;92.60;;;;;;5070189;28;20201;-64
2021/03/18 08:21:07;;;;;;;6.95;4.28;;;9.30;92.80;;;;;;5070181;28;20802;-62
2021/03/18 08:23:47;;;;;;;10.53;4.50;;;9.00;93.70;;;;;;5071149;28;20228;-55
2021/03/18 08:26:38;;;;;;;6.53;4.20;;;8.90;93.70;;;;;;5070747;28;20206;-53
2021/03/18 08:29:08;;;;;;;8.43;4.43;;;8.60;94.00;;;;;;5071067;28;20669;-52
2021/03/18 08:31:54;;;;;;;6.40;4.07;;;8.60;94.80;;;;;;5071069;28;20219;-54
2021/03/18 08:34:22;;;;;;;6.13;4.00;;;8.70;94.10;;;;;;5070642;28;20225;-63
2021/03/18 08:36:57;;;;;;;6.30;3.90;;;8.90;93.30;;;;;;5068209;28;20216;-64
2021/03/18 08:39:42;;;;;;;8.67;4.03;;;8.90;93.50;;;;;;5070933;28;20208;-63
2021/03/18 08:42:35;;;;;;;6.10;4.30;;;9.10;93.40;;;;;;5071112;28;20251;-63
2021/03/18 08:45:05;;;;;;;7.37;4.30;;;9.40;93.40;;;;;;5070578;28;20262;-62
2021/03/18 08:47:39;;;;;;;5.50;3.70;;;9.70;93.00;;;;;;5071091;28;20441;-62
2021/03/18 08:50:08;;;;;;;8.73;4.47;;;10.30;91.80;;;;;;5070761;28;20204;-61
2021/03/18 08:52:40;;;;;;;7.43;4.63;;;10.70;91.00;;;;;;5070648;28;20320;-60
2021/03/18 08:55:08;;;;;;;7.97;4.00;;;10.90;90.30;;;;;;5073324;28;20625;-60
2021/03/18 08:57:36;;;;;;;8.37;4.00;;;11.10;90.40;;;;;;5074414;28;20225;-60
2021/03/18 09:00:10;;;;;;;5.83;4.23;;;11.10;89.80;;;;;;5074984;28;20227;-60
2021/03/18 09:02:38;;;;;;;11.87;4.37;;;11.10;89.60;;;;;;5075390;28;20235;-62
2021/03/18 09:05:07;;;;;;;9.10;4.73;;;11.20;90.00;;;;;;5074402;28;20212;-62
2021/03/18 09:07:33;;;;;;;7.10;4.43;;;11.20;88.40;;;;;;5074704;28;20205;-62
2021/03/18 09:10:02;;;;;;;7.63;4.40;;;11.00;88.20;;;;;;5074426;28;20212;-61
2021/03/18 09:12:49;;;;;;;7.67;4.63;;;10.50;90.30;;;;;;5074349;28;20204;-61
2021/03/18 09:15:20;;;;;;;5.67;4.23;;;10.10;90.40;;;;;;5074667;28;20208;-61
2021/03/18 09:17:48;;;;;;;4.97;3.93;;;9.80;91.40;;;;;;5073964;28;20265;-61
2021/03/18 09:20:16;;;;;;;8.57;4.30;;;9.80;91.50;;;;;;5074067;28;20213;-61
2021/03/18 09:22:42;;;;;;;9.00;5.67;;;9.70;91.80;;;;;;5074002;28;20586;-60
2021/03/18 09:25:11;;;;;;;9.17;4.17;;;9.50;92.00;;;;;;5074383;28;20485;-60
2021/03/18 09:27:40;;;;;;;6.13;4.33;;;9.00;92.70;;;;;;5074419;28;20239;-62
2021/03/18 09:30:27;;;;;;;6.03;4.13;;;8.90;93.30;;;;;;5073913;28;20719;-62
2021/03/18 09:32:54;;;;;;;6.40;4.13;;;8.80;93.10;;;;;;5074159;28;20225;-61
2021/03/18 09:35:21;;;;;;;5.43;4.27;;;8.60;93.30;;;;;;5073982;28;20300;-62
2021/03/18 09:37:49;;;;;;;8.73;4.40;;;8.30;93.30;;;;;;5073988;28;20609;-61
2021/03/18 09:40:16;;;;;;;9.57;4.90;;;8.10;93.70;;;;;;5073783;28;20208;-62
2021/03/18 09:42:44;;;;;;;5.80;4.37;;;8.20;93.80;;;;;;5073652;28;20276;-63
2021/03/18 09:45:17;;;;;;;7.97;4.57;;;8.50;94.10;;;;;;5061120;28;20206;-61
2021/03/18 09:47:48;;;;;;;8.23;4.50;;;9.10;93.90;;;;;;5053527;28;20686;-61
2021/03/18 09:50:14;;;;;;;6.50;4.20;;;9.80;92.00;;;;;;5053741;28;20527;-62
2021/03/18 09:52:40;;;;;;;7.23;4.50;;;10.30;91.40;;;;;;5053353;28;20295;-61
2021/03/18 09:55:12;;;;;;;6.43;3.87;;;10.90;87.00;;;;;;5053389;28;20206;-61
2021/03/18 09:57:38;;;;;;;6.60;4.00;;;11.30;85.00;;;;;;5053915;28;20263;-62
2021/03/18 10:00:08;;;;;;;6.77;4.20;;;11.10;84.70;;;;;;5053278;28;20541;-63
2021/03/18 10:02:34;;;;;;;9.80;3.80;;;10.60;85.40;;;;;;5052985;28;20229;-62
2021/03/18 10:05:01;;;;;;;6.27;3.93;;;10.40;86.70;;;;;;5053103;28;20628;-60
2021/03/18 10:07:29;;;;;;;9.50;4.33;;;10.30;87.30;;;;;;5052938;28;20293;-63
2021/03/18 10:09:55;;;;;;;8.17;4.33;;;10.50;87.70;;;;;;5053417;28;20618;-63
2021/03/18 10:12:22;;;;;;;10.27;4.90;;;10.70;86.30;;;;;;5053292;28;20646;-63
2021/03/18 10:14:54;;;;;;;9.53;4.60;;;10.90;86.30;;;;;;5053421;28;20245;-63
2021/03/18 10:17:26;;;;;;;7.47;4.17;;;11.10;86.40;;;;;;5053632;28;20306;-63
2021/03/18 10:19:58;;;;;;;6.83;4.10;;;11.30;87.50;;;;;;5053517;28;20201;-63
2021/03/18 10:22:30;;;;;;;6.33;3.93;;;11.40;86.20;;;;;;5053642;28;20209;-63
2021/03/18 10:25:02;;;;;;;5.83;3.80;;;11.50;81.70;;;;;;5052990;28;20248;-60
2021/03/18 10:27:32;;;;;;;5.13;3.53;;;11.20;78.00;;;;;;5053304;28;20208;-63
2021/03/18 10:30:06;;;;;;;7.87;3.77;;;10.90;78.90;;;;;;5053250;28;20228;-62
2021/03/18 10:32:33;;;;;;;4.63;3.27;;;10.60;79.50;;;;;;5052910;28;20762;-61
2021/03/18 10:34:59;;;;;;;8.70;3.37;;;10.30;79.10;;;;;;5052791;28;20618;-62
2021/03/18 10:37:31;;;;;;;5.80;3.73;;;10.10;79.80;;;;;;5052563;28;20763;-62
2021/03/18 10:40:15;;;;;;;4.33;3.60;;;10.10;81.20;;;;;;5052861;28;20300;-61
2021/03/18 10:42:43;;;;;;;5.67;3.57;;;10.00;81.00;;;;;;5053050;28;20225;-62
2021/03/18 10:45:21;;;;;;;8.03;3.60;;;10.30;79.80;;;;;;5052585;28;20705;-63
2021/03/18 10:47:49;;;;;;;6.43;4.10;;;10.30;80.40;;;;;;5052334;28;20201;-62
2021/03/18 10:50:19;;;;;;;7.40;4.20;;;10.60;82.20;;;;;;5052863;28;20216;-62
2021/03/18 10:52:55;;;;;;;5.23;4.40;;;10.80;81.30;;;;;;5052516;28;20233;-62
2021/03/18 10:55:26;;;;;;;6.00;4.40;;;11.40;81.70;;;;;;5052210;28;20212;-62
2021/03/18 10:58:04;;;;;;;10.20;3.60;;;12.20;79.80;;;;;;5052313;28;20221;-62
2021/03/18 11:00:33;;;;;;;5.77;3.50;;;12.70;78.30;;;;;;5052141;28;20255;-62
2021/03/18 11:03:18;;;;;;;15.07;4.50;;;13.10;75.90;;;;;;5067831;28;20243;-63
2021/03/18 11:05:47;;;;;;;16.37;4.97;;;13.50;75.80;;;;;;5062820;28;20269;-60
2021/03/18 11:08:15;;;;;;;5.87;3.40;;;13.80;74.50;;;;;;5051934;28;20239;-62
2021/03/18 11:10:44;;;;;;;40.00;7.00;;;13.90;72.50;;;;;;5051935;28;20263;-62
2021/03/18 11:13:14;;;;;;;7.10;3.50;;;13.80;71.70;;;;;;5052345;28;20225;-61
2021/03/18 11:15:45;;;;;;;5.93;3.63;;;13.90;70.40;;;;;;5051998;28;20209;-61
2021/03/18 11:18:13;;;;;;;7.10;3.70;;;14.00;70.30;;;;;;5051839;28;20221;-61
2021/03/18 11:20:42;;;;;;;9.43;4.60;;;13.90;72.80;;;;;;5052136;28;20202;-61
2021/03/18 11:23:10;;;;;;;9.57;3.97;;;13.70;73.80;;;;;;5052003;28;20229;-63
2021/03/18 11:25:36;;;;;;;4.57;3.80;;;13.60;74.50;;;;;;5052089;28;20236;-62
2021/03/18 11:28:02;;;;;;;8.60;4.27;;;13.40;73.50;;;;;;5052095;28;20576;-62
2021/03/18 11:30:31;;;;;;;7.97;3.73;;;13.40;74.00;;;;;;5052009;28;20213;-62
2021/03/18 11:33:15;;;;;;;6.60;3.83;;;13.30;72.50;;;;;;5051616;28;20221;-62
2021/03/18 11:35:44;;;;;;;8.73;3.37;;;13.30;71.70;;;;;;5051463;28;20350;-62
2021/03/18 11:38:11;;;;;;;4.47;2.93;;;13.30;69.30;;;;;;5051555;28;20218;-62
2021/03/18 11:40:38;;;;;;;5.67;3.30;;;13.40;67.50;;;;;;5051877;28;20205;-62
2021/03/18 11:43:05;;;;;;;7.73;3.27;;;13.50;67.50;;;;;;5051449;28;20237;-62
2021/03/18 11:45:32;;;;;;;6.03;3.30;;;13.60;65.60;;;;;;5052066;28;20300;-62
2021/03/18 11:47:58;;;;;;;8.13;3.40;;;13.40;66.90;;;;;;5052181;28;20701;-61
2021/03/18 11:50:25;;;;;;;4.50;3.20;;;13.30;67.70;;;;;;5052060;28;20232;-62
2021/03/18 11:52:53;;;;;;;4.30;3.50;;;13.20;68.30;;;;;;5051768;28;20767;-61
2021/03/18 11:55:19;;;;;;;8.47;3.83;;;13.10;67.50;;;;;;5051691;28;20678;-62
2021/03/18 11:57:46;;;;;;;7.73;3.63;;;13.20;67.00;;;;;;5051706;28;20229;-62
2021/03/18 12:00:13;;;;;;;9.33;3.80;;;12.90;69.30;;;;;;5051375;28;20210;-62
2021/03/18 12:02:39;;;;;;;5.00;3.30;;;12.70;69.70;;;;;;5051037;28;20609;-62
2021/03/18 12:05:07;;;;;;;11.70;3.90;;;12.50;70.00;;;;;;5051219;28;20224;-62
2021/03/18 12:07:34;;;;;;;5.97;3.30;;;12.40;69.70;;;;;;5051206;28;20617;-62
2021/03/18 12:10:01;;;;;;;5.23;3.33;;;12.20;70.80;;;;;;5050958;28;20201;-62
2021/03/18 12:12:27;;;;;;;6.03;3.30;;;12.00;69.40;;;;;;5051131;28;20201;-62
2021/03/18 12:14:54;;;;;;;4.70;3.37;;;11.80;70.10;;;;;;5050778;28;20202;-62
2021/03/18 12:17:20;;;;;;;6.97;3.37;;;11.70;70.90;;;;;;5050847;28;20701;-62
2021/03/18 12:19:46;;;;;;;7.07;3.47;;;11.50;71.60;;;;;;5051165;28;20260;-62
2021/03/18 12:22:12;;;;;;;5.73;3.03;;;11.30;70.50;;;;;;5051060;28;20210;-61
2021/03/18 12:24:39;;;;;;;6.57;3.10;;;11.50;67.50;;;;;;5051173;28;20226;-62
2021/03/18 12:27:06;;;;;;;6.23;3.17;;;11.50;68.10;;;;;;5051291;28;20202;-62
2021/03/18 12:29:32;;;;;;;4.33;2.60;;;11.80;68.50;;;;;;5050341;28;20270;-61
2021/03/18 12:31:58;;;;;;;4.13;2.37;;;12.30;66.50;;;;;;5050922;28;20241;-60
2021/03/18 12:34:25;;;;;;;5.83;2.63;;;12.10;65.50;;;;;;5050851;28;20233;-61
2021/03/18 12:36:51;;;;;;;5.23;2.70;;;11.90;65.70;;;;;;5051003;28;20591;-63
2021/03/18 12:39:17;;;;;;;4.10;2.30;;;11.90;65.70;;;;;;5051011;28;20205;-61
2021/03/18 12:41:44;;;;;;;4.67;2.13;;;12.20;64.00;;;;;;5050969;28;20216;-61
2021/03/18 12:44:11;;;;;;;4.73;2.27;;;12.50;61.80;;;;;;5050663;28;20225;-61
2021/03/18 12:46:37;;;;;;;3.27;2.17;;;12.60;62.50;;;;;;5050688;28;20201;-61
2021/03/18 12:49:03;;;;;;;3.00;1.93;;;12.90;59.80;;;;;;5050035;28;20669;-65
2021/03/18 12:51:30;;;;;;;4.13;2.30;;;13.10;60.60;;;;;;5050751;28;20582;-61
2021/03/18 12:53:56;;;;;;;4.93;3.40;;;13.50;59.20;;;;;;5050842;28;20229;-61
2021/03/18 12:56:22;;;;;;;4.77;3.53;;;13.90;63.20;;;;;;5050768;28;20332;-61
2021/03/18 12:58:48;;;;;;;7.07;3.77;;;13.80;68.40;;;;;;5050690;28;20205;-62